KFMY/FMY METAR and TAF weather

Enter ICAO airport designator
Station Type Date Time Source
KFMY METAR 2022/05/23 13:53 UTC NOAA

KFMY 231353Z 14007KT 110V180 10SM FEW023 28/22 A3010 RMK AO2 SLP193 T02780217


Station Type Date Time Source
KFMY Decoded METAR 2022/05/23 13:53 UTC NOAA

FORT MYERS PAGE FIELD, FL, United States (KFMY) 26-35N 081-52W 4M
May 23, 2022 - 09:53 AM EDT / 2022.05.23 1353 UTC
Wind: from the SE (140 degrees) at 8 MPH (7 KT) (direction variable):0
Visibility: 10 mile(s):0
Sky conditions: mostly clear
Temperature: 82.0 F (27.8 C)
Dew Point: 71.1 F (21.7 C)
Relative Humidity: 69%
Pressure (altimeter): 30.1 in. Hg (1019 hPa)
ob: KFMY 231353Z 14007KT 110V180 10SM FEW023 28/22 A3010 RMK AO2 SLP193 T02780217
cycle: 14

Station Type Date Time Source
KFMY TAF 2022/05/23 12:42 UTC NOAA

TAF KFMY 231138Z 2312/2412 11007KT P6SM FEW025 BKN250
FM231600 16010KT P6SM SCT030 BKN250
FM231800 21009KT P6SM SCT030 BKN250
FM232100 23009KT P6SM VCSH SCT030 BKN250
FM240200 11004KT P6SM BKN250

Example: see airport list